sensor_id;sensor_type;location;lat;lon;timestamp;temperature;humidity
69589;SHT31;56792;50.644;17.984;2024-03-22T00:00:08;10.90;77.06
69589;SHT31;56792;50.644;17.984;2024-03-22T00:02:40;10.88;77.34
69589;SHT31;56792;50.644;17.984;2024-03-22T00:05:11;10.85;77.57
69589;SHT31;56792;50.644;17.984;2024-03-22T00:07:43;10.81;77.77
69589;SHT31;56792;50.644;17.984;2024-03-22T00:10:13;10.78;78.12
69589;SHT31;56792;50.644;17.984;2024-03-22T00:12:44;10.75;78.29
69589;SHT31;56792;50.644;17.984;2024-03-22T00:15:16;10.70;78.34
69589;SHT31;56792;50.644;17.984;2024-03-22T00:17:47;10.66;78.18
69589;SHT31;56792;50.644;17.984;2024-03-22T00:20:17;10.63;78.29
69589;SHT31;56792;50.644;17.984;2024-03-22T00:22:47;10.59;78.48
69589;SHT31;56792;50.644;17.984;2024-03-22T00:25:18;10.56;78.63
69589;SHT31;56792;50.644;17.984;2024-03-22T00:27:48;10.53;78.48
69589;SHT31;56792;50.644;17.984;2024-03-22T00:30:19;10.50;78.91
69589;SHT31;56792;50.644;17.984;2024-03-22T00:32:50;10.48;78.98
69589;SHT31;56792;50.644;17.984;2024-03-22T00:35:20;10.45;79.11
69589;SHT31;56792;50.644;17.984;2024-03-22T00:37:51;10.45;79.34
69589;SHT31;56792;50.644;17.984;2024-03-22T00:40:21;10.42;79.23
69589;SHT31;56792;50.644;17.984;2024-03-22T00:42:51;10.41;79.45
69589;SHT31;56792;50.644;17.984;2024-03-22T00:45:22;10.41;79.50
69589;SHT31;56792;50.644;17.984;2024-03-22T00:47:53;10.40;79.74
69589;SHT31;56792;50.644;17.984;2024-03-22T00:50:23;10.41;79.94
69589;SHT31;56792;50.644;17.984;2024-03-22T00:52:55;10.40;79.86
69589;SHT31;56792;50.644;17.984;2024-03-22T00:55:25;10.40;79.79
69589;SHT31;56792;50.644;17.984;2024-03-22T00:57:56;10.39;79.87
69589;SHT31;56792;50.644;17.984;2024-03-22T01:00:26;10.36;80.06
69589;SHT31;56792;50.644;17.984;2024-03-22T01:02:57;10.34;80.54
69589;SHT31;56792;50.644;17.984;2024-03-22T01:05:27;10.31;80.72
69589;SHT31;56792;50.644;17.984;2024-03-22T01:07:58;10.30;80.67
69589;SHT31;56792;50.644;17.984;2024-03-22T01:10:28;10.29;80.51
69589;SHT31;56792;50.644;17.984;2024-03-22T01:13:00;10.26;80.73
69589;SHT31;56792;50.644;17.984;2024-03-22T01:15:30;10.26;81.36
69589;SHT31;56792;50.644;17.984;2024-03-22T01:18:01;10.25;81.77
69589;SHT31;56792;50.644;17.984;2024-03-22T01:20:32;10.25;81.63
69589;SHT31;56792;50.644;17.984;2024-03-22T01:23:03;10.24;81.59
69589;SHT31;56792;50.644;17.984;2024-03-22T01:25:33;10.22;81.72
69589;SHT31;56792;50.644;17.984;2024-03-22T01:28:04;10.18;81.78
69589;SHT31;56792;50.644;17.984;2024-03-22T01:30:35;10.15;81.97
69589;SHT31;56792;50.644;17.984;2024-03-22T01:33:05;10.12;81.76
69589;SHT31;56792;50.644;17.984;2024-03-22T01:35:36;10.09;82.35
69589;SHT31;56792;50.644;17.984;2024-03-22T01:38:06;10.07;82.30
69589;SHT31;56792;50.644;17.984;2024-03-22T01:40:37;10.07;82.59
69589;SHT31;56792;50.644;17.984;2024-03-22T01:43:07;10.08;82.30
69589;SHT31;56792;50.644;17.984;2024-03-22T01:45:38;10.11;82.63
69589;SHT31;56792;50.644;17.984;2024-03-22T01:48:09;10.13;82.72
69589;SHT31;56792;50.644;17.984;2024-03-22T01:50:40;10.16;82.56
69589;SHT31;56792;50.644;17.984;2024-03-22T01:53:11;10.18;82.43
69589;SHT31;56792;50.644;17.984;2024-03-22T01:55:42;10.21;81.92
69589;SHT31;56792;50.644;17.984;2024-03-22T01:58:13;10.21;81.47
69589;SHT31;56792;50.644;17.984;2024-03-22T02:00:44;10.19;81.18
69589;SHT31;56792;50.644;17.984;2024-03-22T02:03:14;10.19;80.61
69589;SHT31;56792;50.644;17.984;2024-03-22T02:05:45;10.18;80.05
69589;SHT31;56792;50.644;17.984;2024-03-22T02:08:15;10.18;79.46
69589;SHT31;56792;50.644;17.984;2024-03-22T02:10:45;10.16;79.03
69589;SHT31;56792;50.644;17.984;2024-03-22T02:13:16;10.16;78.66
69589;SHT31;56792;50.644;17.984;2024-03-22T02:15:47;10.13;78.16
69589;SHT31;56792;50.644;17.984;2024-03-22T02:18:17;10.11;77.23
69589;SHT31;56792;50.644;17.984;2024-03-22T02:20:48;10.09;76.59
69589;SHT31;56792;50.644;17.984;2024-03-22T02:25:59;10.02;74.09
69589;SHT31;56792;50.644;17.984;2024-03-22T02:28:31;9.99;73.84
69589;SHT31;56792;50.644;17.984;2024-03-22T02:31:03;9.96;73.28
69589;SHT31;56792;50.644;17.984;2024-03-22T02:33:33;9.94;72.87
69589;SHT31;56792;50.644;17.984;2024-03-22T02:36:04;9.92;72.95
69589;SHT31;56792;50.644;17.984;2024-03-22T02:38:35;9.87;72.97
69589;SHT31;56792;50.644;17.984;2024-03-22T02:41:06;9.83;72.98
69589;SHT31;56792;50.644;17.984;2024-03-22T02:43:36;9.79;72.92
69589;SHT31;56792;50.644;17.984;2024-03-22T02:46:07;9.75;72.87
69589;SHT31;56792;50.644;17.984;2024-03-22T02:48:37;9.70;73.03
69589;SHT31;56792;50.644;17.984;2024-03-22T02:51:08;9.66;73.12
69589;SHT31;56792;50.644;17.984;2024-03-22T02:53:38;9.62;72.92
69589;SHT31;56792;50.644;17.984;2024-03-22T02:56:09;9.60;72.88
69589;SHT31;56792;50.644;17.984;2024-03-22T02:58:39;9.57;73.09
69589;SHT31;56792;50.644;17.984;2024-03-22T03:01:10;9.53;73.14
69589;SHT31;56792;50.644;17.984;2024-03-22T03:03:40;9.51;73.17
69589;SHT31;56792;50.644;17.984;2024-03-22T03:06:11;9.48;73.26
69589;SHT31;56792;50.644;17.984;2024-03-22T03:08:42;9.45;73.40
69589;SHT31;56792;50.644;17.984;2024-03-22T03:11:15;9.43;73.41
69589;SHT31;56792;50.644;17.984;2024-03-22T03:13:45;9.41;73.48
69589;SHT31;56792;50.644;17.984;2024-03-22T03:16:16;9.40;73.56
69589;SHT31;56792;50.644;17.984;2024-03-22T03:18:46;9.38;73.55
69589;SHT31;56792;50.644;17.984;2024-03-22T03:21:17;9.39;73.53
69589;SHT31;56792;50.644;17.984;2024-03-22T03:23:47;9.39;73.49
69589;SHT31;56792;50.644;17.984;2024-03-22T03:26:18;9.39;73.52
69589;SHT31;56792;50.644;17.984;2024-03-22T03:28:48;9.38;73.57
69589;SHT31;56792;50.644;17.984;2024-03-22T03:31:21;9.38;73.60
69589;SHT31;56792;50.644;17.984;2024-03-22T03:33:51;9.38;73.63
69589;SHT31;56792;50.644;17.984;2024-03-22T03:36:22;9.36;73.71
69589;SHT31;56792;50.644;17.984;2024-03-22T03:38:52;9.36;73.82
69589;SHT31;56792;50.644;17.984;2024-03-22T03:41:23;9.35;73.82
69589;SHT31;56792;50.644;17.984;2024-03-22T03:43:53;9.34;73.88
69589;SHT31;56792;50.644;17.984;2024-03-22T03:46:24;9.32;73.97
69589;SHT31;56792;50.644;17.984;2024-03-22T03:48:54;9.31;74.00
69589;SHT31;56792;50.644;17.984;2024-03-22T03:51:25;9.30;73.99
69589;SHT31;56792;50.644;17.984;2024-03-22T03:53:55;9.29;74.14
69589;SHT31;56792;50.644;17.984;2024-03-22T03:56:26;9.28;74.19
69589;SHT31;56792;50.644;17.984;2024-03-22T03:58:56;9.26;74.21
69589;SHT31;56792;50.644;17.984;2024-03-22T04:01:27;9.26;74.33
69589;SHT31;56792;50.644;17.984;2024-03-22T04:03:57;9.25;74.40
69589;SHT31;56792;50.644;17.984;2024-03-22T04:06:28;9.24;74.42
69589;SHT31;56792;50.644;17.984;2024-03-22T04:08:58;9.23;74.53
69589;SHT31;56792;50.644;17.984;2024-03-22T04:11:29;9.22;74.60
69589;SHT31;56792;50.644;17.984;2024-03-22T04:14:00;9.21;74.66
69589;SHT31;56792;50.644;17.984;2024-03-22T04:16:30;9.19;74.72
69589;SHT31;56792;50.644;17.984;2024-03-22T04:19:01;9.19;74.79
69589;SHT31;56792;50.644;17.984;2024-03-22T04:21:31;9.17;74.86
69589;SHT31;56792;50.644;17.984;2024-03-22T04:24:02;9.17;74.94
69589;SHT31;56792;50.644;17.984;2024-03-22T04:26:33;9.14;75.12
69589;SHT31;56792;50.644;17.984;2024-03-22T04:29:03;9.14;75.11
69589;SHT31;56792;50.644;17.984;2024-03-22T04:31:34;9.13;75.11
69589;SHT31;56792;50.644;17.984;2024-03-22T04:34:04;9.13;75.15
69589;SHT31;56792;50.644;17.984;2024-03-22T04:36:36;9.13;75.26
69589;SHT31;56792;50.644;17.984;2024-03-22T04:39:07;9.12;75.41
69589;SHT31;56792;50.644;17.984;2024-03-22T04:41:38;9.11;75.48
69589;SHT31;56792;50.644;17.984;2024-03-22T04:44:09;9.11;75.53
69589;SHT31;56792;50.644;17.984;2024-03-22T04:46:39;9.10;75.62
69589;SHT31;56792;50.644;17.984;2024-03-22T04:49:10;9.09;75.64
69589;SHT31;56792;50.644;17.984;2024-03-22T04:51:41;9.06;75.90
69589;SHT31;56792;50.644;17.984;2024-03-22T04:54:12;9.05;75.93
69589;SHT31;56792;50.644;17.984;2024-03-22T04:56:42;9.05;76.06
69589;SHT31;56792;50.644;17.984;2024-03-22T04:59:13;9.04;76.03
69589;SHT31;56792;50.644;17.984;2024-03-22T05:01:44;9.02;76.23
69589;SHT31;56792;50.644;17.984;2024-03-22T05:04:14;9.02;76.38
69589;SHT31;56792;50.644;17.984;2024-03-22T05:06:44;9.02;76.48
69589;SHT31;56792;50.644;17.984;2024-03-22T05:09:15;9.03;76.57
69589;SHT31;56792;50.644;17.984;2024-03-22T05:11:45;9.02;77.00
69589;SHT31;56792;50.644;17.984;2024-03-22T05:14:17;9.02;77.06
69589;SHT31;56792;50.644;17.984;2024-03-22T05:16:48;9.02;77.40
69589;SHT31;56792;50.644;17.984;2024-03-22T05:19:19;9.02;77.46
69589;SHT31;56792;50.644;17.984;2024-03-22T05:21:50;9.04;77.56
69589;SHT31;56792;50.644;17.984;2024-03-22T05:24:20;9.03;77.65
69589;SHT31;56792;50.644;17.984;2024-03-22T05:26:51;9.03;77.64
69589;SHT31;56792;50.644;17.984;2024-03-22T05:29:22;9.04;77.80
69589;SHT31;56792;50.644;17.984;2024-03-22T05:31:52;9.04;77.97
69589;SHT31;56792;50.644;17.984;2024-03-22T05:34:23;9.04;78.01
69589;SHT31;56792;50.644;17.984;2024-03-22T05:36:54;9.05;78.07
69589;SHT31;56792;50.644;17.984;2024-03-22T05:39:25;9.05;78.17
69589;SHT31;56792;50.644;17.984;2024-03-22T05:41:55;9.04;78.46
69589;SHT31;56792;50.644;17.984;2024-03-22T05:44:26;9.03;78.81
69589;SHT31;56792;50.644;17.984;2024-03-22T05:46:56;9.01;79.23
69589;SHT31;56792;50.644;17.984;2024-03-22T05:49:27;9.02;79.17
69589;SHT31;56792;50.644;17.984;2024-03-22T05:51:58;9.02;79.31
69589;SHT31;56792;50.644;17.984;2024-03-22T05:54:28;9.02;79.46
69589;SHT31;56792;50.644;17.984;2024-03-22T05:56:59;9.02;79.64
69589;SHT31;56792;50.644;17.984;2024-03-22T05:59:31;9.00;80.04
69589;SHT31;56792;50.644;17.984;2024-03-22T06:02:02;9.01;80.13
69589;SHT31;56792;50.644;17.984;2024-03-22T06:04:33;9.00;80.17
69589;SHT31;56792;50.644;17.984;2024-03-22T06:07:03;9.01;80.31
69589;SHT31;56792;50.644;17.984;2024-03-22T06:09:34;9.01;80.61
69589;SHT31;56792;50.644;17.984;2024-03-22T06:12:12;8.98;80.94
69589;SHT31;56792;50.644;17.984;2024-03-22T06:14:43;8.98;81.17
69589;SHT31;56792;50.644;17.984;2024-03-22T06:17:15;8.95;81.30
69589;SHT31;56792;50.644;17.984;2024-03-22T06:19:45;8.95;81.27
69589;SHT31;56792;50.644;17.984;2024-03-22T06:22:16;8.95;81.33
69589;SHT31;56792;50.644;17.984;2024-03-22T06:24:46;8.93;81.64
69589;SHT31;56792;50.644;17.984;2024-03-22T06:27:17;8.90;82.11
69589;SHT31;56792;50.644;17.984;2024-03-22T06:29:47;8.90;82.04
69589;SHT31;56792;50.644;17.984;2024-03-22T06:32:17;8.90;82.24
69589;SHT31;56792;50.644;17.984;2024-03-22T06:34:48;8.87;82.41
69589;SHT31;56792;50.644;17.984;2024-03-22T06:37:18;8.89;82.18
69589;SHT31;56792;50.644;17.984;2024-03-22T06:39:49;8.90;82.28
69589;SHT31;56792;50.644;17.984;2024-03-22T06:42:19;8.93;82.15
69589;SHT31;56792;50.644;17.984;2024-03-22T06:44:50;8.94;82.28
69589;SHT31;56792;50.644;17.984;2024-03-22T06:47:21;8.92;82.39
69589;SHT31;56792;50.644;17.984;2024-03-22T06:49:51;8.94;82.35
69589;SHT31;56792;50.644;17.984;2024-03-22T06:52:22;8.98;82.20
69589;SHT31;56792;50.644;17.984;2024-03-22T06:54:52;9.02;82.00
69589;SHT31;56792;50.644;17.984;2024-03-22T06:57:23;9.06;81.79
69589;SHT31;56792;50.644;17.984;2024-03-22T06:59:53;9.09;81.64
69589;SHT31;56792;50.644;17.984;2024-03-22T07:02:23;9.13;81.42
69589;SHT31;56792;50.644;17.984;2024-03-22T07:04:54;9.16;81.27
69589;SHT31;56792;50.644;17.984;2024-03-22T07:07:24;9.19;81.05
69589;SHT31;56792;50.644;17.984;2024-03-22T07:09:55;9.20;80.86
69589;SHT31;56792;50.644;17.984;2024-03-22T07:12:26;9.23;80.75
69589;SHT31;56792;50.644;17.984;2024-03-22T07:14:57;9.26;80.68
69589;SHT31;56792;50.644;17.984;2024-03-22T07:17:28;9.28;80.44
69589;SHT31;56792;50.644;17.984;2024-03-22T07:19:59;9.33;80.29
69589;SHT31;56792;50.644;17.984;2024-03-22T07:22:30;9.38;80.18
69589;SHT31;56792;50.644;17.984;2024-03-22T07:25:01;9.41;79.89
69589;SHT31;56792;50.644;17.984;2024-03-22T07:27:32;9.44;79.78
69589;SHT31;56792;50.644;17.984;2024-03-22T07:30:03;9.51;79.74
69589;SHT31;56792;50.644;17.984;2024-03-22T07:32:35;9.54;79.48
69589;SHT31;56792;50.644;17.984;2024-03-22T07:35:06;9.56;79.42
69589;SHT31;56792;50.644;17.984;2024-03-22T07:37:36;9.58;79.31
69589;SHT31;56792;50.644;17.984;2024-03-22T07:40:08;9.60;79.37
69589;SHT31;56792;50.644;17.984;2024-03-22T07:42:39;9.63;79.47
69589;SHT31;56792;50.644;17.984;2024-03-22T07:45:09;9.67;79.19
69589;SHT31;56792;50.644;17.984;2024-03-22T07:47:40;9.71;78.92
69589;SHT31;56792;50.644;17.984;2024-03-22T07:50:10;9.76;78.53
69589;SHT31;56792;50.644;17.984;2024-03-22T07:52:42;9.84;77.81
69589;SHT31;56792;50.644;17.984;2024-03-22T07:55:12;9.90;77.31
69589;SHT31;56792;50.644;17.984;2024-03-22T07:57:43;10.03;77.26
69589;SHT31;56792;50.644;17.984;2024-03-22T08:00:14;10.15;76.73
69589;SHT31;56792;50.644;17.984;2024-03-22T08:02:45;10.23;76.20
69589;SHT31;56792;50.644;17.984;2024-03-22T08:05:16;10.27;76.05
69589;SHT31;56792;50.644;17.984;2024-03-22T08:07:47;10.44;76.22
69589;SHT31;56792;50.644;17.984;2024-03-22T08:10:17;10.63;76.04
69589;SHT31;56792;50.644;17.984;2024-03-22T08:12:48;10.79;75.50
69589;SHT31;56792;50.644;17.984;2024-03-22T08:15:19;10.81;74.73
69589;SHT31;56792;50.644;17.984;2024-03-22T08:17:49;10.86;74.75
69589;SHT31;56792;50.644;17.984;2024-03-22T08:20:20;10.89;74.41
69589;SHT31;56792;50.644;17.984;2024-03-22T08:22:51;10.94;73.77
69589;SHT31;56792;50.644;17.984;2024-03-22T08:25:21;10.95;73.04
69589;SHT31;56792;50.644;17.984;2024-03-22T08:27:52;10.88;72.69
69589;SHT31;56792;50.644;17.984;2024-03-22T08:30:22;10.86;72.87
69589;SHT31;56792;50.644;17.984;2024-03-22T08:32:53;10.85;73.12
69589;SHT31;56792;50.644;17.984;2024-03-22T08:35:23;10.76;73.12
69589;SHT31;56792;50.644;17.984;2024-03-22T08:37:54;10.70;73.54
69589;SHT31;56792;50.644;17.984;2024-03-22T08:40:25;10.55;74.19
69589;SHT31;56792;50.644;17.984;2024-03-22T08:42:55;10.37;75.24
69589;SHT31;56792;50.644;17.984;2024-03-22T08:45:26;10.22;75.97
69589;SHT31;56792;50.644;17.984;2024-03-22T08:47:56;10.16;76.39
69589;SHT31;56792;50.644;17.984;2024-03-22T08:50:26;10.08;76.77
69589;SHT31;56792;50.644;17.984;2024-03-22T08:52:57;9.99;77.16
69589;SHT31;56792;50.644;17.984;2024-03-22T08:55:29;9.98;77.19
69589;SHT31;56792;50.644;17.984;2024-03-22T08:58:00;9.97;77.20
69589;SHT31;56792;50.644;17.984;2024-03-22T09:00:30;10.02;77.17
69589;SHT31;56792;50.644;17.984;2024-03-22T09:03:01;10.06;77.14
69589;SHT31;56792;50.644;17.984;2024-03-22T09:05:32;10.07;77.04
69589;SHT31;56792;50.644;17.984;2024-03-22T09:08:03;10.05;77.04
69589;SHT31;56792;50.644;17.984;2024-03-22T09:10:35;10.10;77.01
69589;SHT31;56792;50.644;17.984;2024-03-22T09:13:05;10.14;76.80
69589;SHT31;56792;50.644;17.984;2024-03-22T09:15:38;10.17;76.89
69589;SHT31;56792;50.644;17.984;2024-03-22T09:18:09;10.27;76.62
69589;SHT31;56792;50.644;17.984;2024-03-22T09:20:40;10.38;76.38
69589;SHT31;56792;50.644;17.984;2024-03-22T09:23:10;10.51;75.74
69589;SHT31;56792;50.644;17.984;2024-03-22T09:25:41;10.61;75.32
69589;SHT31;56792;50.644;17.984;2024-03-22T09:28:12;10.73;74.99
69589;SHT31;56792;50.644;17.984;2024-03-22T09:30:43;10.76;74.52
69589;SHT31;56792;50.644;17.984;2024-03-22T09:33:14;10.86;74.50
69589;SHT31;56792;50.644;17.984;2024-03-22T09:35:44;10.92;73.97
69589;SHT31;56792;50.644;17.984;2024-03-22T09:38:15;11.00;73.78
69589;SHT31;56792;50.644;17.984;2024-03-22T09:40:45;11.08;73.33
69589;SHT31;56792;50.644;17.984;2024-03-22T09:43:20;11.25;73.35
69589;SHT31;56792;50.644;17.984;2024-03-22T09:45:55;11.40;72.79
69589;SHT31;56792;50.644;17.984;2024-03-22T09:48:26;11.49;71.98
69589;SHT31;56792;50.644;17.984;2024-03-22T09:50:59;11.68;72.25
69589;SHT31;56792;50.644;17.984;2024-03-22T09:53:31;11.90;71.60
69589;SHT31;56792;50.644;17.984;2024-03-22T09:56:03;12.05;70.35
69589;SHT31;56792;50.644;17.984;2024-03-22T09:58:35;12.10;69.90
69589;SHT31;56792;50.644;17.984;2024-03-22T10:01:06;12.04;69.64
69589;SHT31;56792;50.644;17.984;2024-03-22T10:03:36;12.00;69.99
69589;SHT31;56792;50.644;17.984;2024-03-22T10:06:07;12.08;70.30
69589;SHT31;56792;50.644;17.984;2024-03-22T10:08:37;12.16;69.61
69589;SHT31;56792;50.644;17.984;2024-03-22T10:11:08;12.13;69.04
69589;SHT31;56792;50.644;17.984;2024-03-22T10:13:39;12.24;69.34
69589;SHT31;56792;50.644;17.984;2024-03-22T10:16:12;12.32;68.84
69589;SHT31;56792;50.644;17.984;2024-03-22T10:18:45;12.49;68.94
69589;SHT31;56792;50.644;17.984;2024-03-22T10:21:18;12.65;68.71
69589;SHT31;56792;50.644;17.984;2024-03-22T10:23:48;12.73;67.96
69589;SHT31;56792;50.644;17.984;2024-03-22T10:26:20;12.63;67.07
69589;SHT31;56792;50.644;17.984;2024-03-22T10:28:51;12.59;67.34
69589;SHT31;56792;50.644;17.984;2024-03-22T10:31:22;12.60;67.69
69589;SHT31;56792;50.644;17.984;2024-03-22T10:33:54;12.64;66.89
69589;SHT31;56792;50.644;17.984;2024-03-22T10:36:26;12.60;66.95
69589;SHT31;56792;50.644;17.984;2024-03-22T10:38:58;12.68;67.12
69589;SHT31;56792;50.644;17.984;2024-03-22T10:41:30;12.85;66.93
69589;SHT31;56792;50.644;17.984;2024-03-22T10:44:01;13.02;65.94
69589;SHT31;56792;50.644;17.984;2024-03-22T10:46:35;13.18;65.73
69589;SHT31;56792;50.644;17.984;2024-03-22T10:49:09;13.24;65.27
69589;SHT31;56792;50.644;17.984;2024-03-22T10:51:46;13.26;65.61
69589;SHT31;56792;50.644;17.984;2024-03-22T10:54:20;13.38;65.43
69589;SHT31;56792;50.644;17.984;2024-03-22T10:56:56;13.46;64.83
69589;SHT31;56792;50.644;17.984;2024-03-22T10:59:32;13.53;64.79
69589;SHT31;56792;50.644;17.984;2024-03-22T11:02:04;13.60;64.83
69589;SHT31;56792;50.644;17.984;2024-03-22T11:04:37;13.72;64.93
69589;SHT31;56792;50.644;17.984;2024-03-22T11:07:08;13.79;64.53
69589;SHT31;56792;50.644;17.984;2024-03-22T11:09:53;13.66;63.97
69589;SHT31;56792;50.644;17.984;2024-03-22T11:12:28;13.67;63.74
69589;SHT31;56792;50.644;17.984;2024-03-22T11:15:00;13.66;63.56
69589;SHT31;56792;50.644;17.984;2024-03-22T11:17:31;13.67;62.89
69589;SHT31;56792;50.644;17.984;2024-03-22T11:20:01;13.73;62.66
69589;SHT31;56792;50.644;17.984;2024-03-22T11:22:33;13.66;62.19
69589;SHT31;56792;50.644;17.984;2024-03-22T11:25:05;13.70;62.81
69589;SHT31;56792;50.644;17.984;2024-03-22T11:27:36;13.82;62.04
69589;SHT31;56792;50.644;17.984;2024-03-22T11:30:08;13.93;61.59
69589;SHT31;56792;50.644;17.984;2024-03-22T11:32:39;14.04;61.11
69589;SHT31;56792;50.644;17.984;2024-03-22T11:35:14;14.16;61.25
69589;SHT31;56792;50.644;17.984;2024-03-22T11:37:45;14.28;60.82
69589;SHT31;56792;50.644;17.984;2024-03-22T11:40:17;14.26;59.76
69589;SHT31;56792;50.644;17.984;2024-03-22T11:42:49;14.25;59.83
69589;SHT31;56792;50.644;17.984;2024-03-22T11:45:23;14.32;59.44
69589;SHT31;56792;50.644;17.984;2024-03-22T11:48:01;14.28;58.87
69589;SHT31;56792;50.644;17.984;2024-03-22T11:50:33;14.25;59.09
69589;SHT31;56792;50.644;17.984;2024-03-22T11:53:06;14.26;58.84
69589;SHT31;56792;50.644;17.984;2024-03-22T11:55:37;14.22;58.70
69589;SHT31;56792;50.644;17.984;2024-03-22T11:58:09;14.20;58.32
69589;SHT31;56792;50.644;17.984;2024-03-22T12:00:40;14.26;58.29
69589;SHT31;56792;50.644;17.984;2024-03-22T12:03:11;14.37;58.42
69589;SHT31;56792;50.644;17.984;2024-03-22T12:05:41;14.45;57.71
69589;SHT31;56792;50.644;17.984;2024-03-22T12:08:12;14.53;57.90
69589;SHT31;56792;50.644;17.984;2024-03-22T12:10:43;14.60;57.43
69589;SHT31;56792;50.644;17.984;2024-03-22T12:13:14;14.64;57.07
69589;SHT31;56792;50.644;17.984;2024-03-22T12:15:45;14.69;57.21
69589;SHT31;56792;50.644;17.984;2024-03-22T12:18:15;14.74;56.62
69589;SHT31;56792;50.644;17.984;2024-03-22T12:20:46;14.71;56.34
69589;SHT31;56792;50.644;17.984;2024-03-22T12:23:16;14.68;56.62
69589;SHT31;56792;50.644;17.984;2024-03-22T12:25:47;14.73;56.43
69589;SHT31;56792;50.644;17.984;2024-03-22T12:28:18;14.80;56.37
69589;SHT31;56792;50.644;17.984;2024-03-22T12:30:49;14.90;55.80
69589;SHT31;56792;50.644;17.984;2024-03-22T12:33:20;14.89;55.40
69589;SHT31;56792;50.644;17.984;2024-03-22T12:35:51;14.81;56.36
69589;SHT31;56792;50.644;17.984;2024-03-22T12:38:21;14.89;55.97
69589;SHT31;56792;50.644;17.984;2024-03-22T12:40:52;14.87;55.78
69589;SHT31;56792;50.644;17.984;2024-03-22T12:43:22;14.96;55.99
69589;SHT31;56792;50.644;17.984;2024-03-22T12:45:53;15.16;56.24
69589;SHT31;56792;50.644;17.984;2024-03-22T12:48:23;15.27;55.44
69589;SHT31;56792;50.644;17.984;2024-03-22T12:50:54;15.36;55.47
69589;SHT31;56792;50.644;17.984;2024-03-22T12:53:24;15.42;55.10
69589;SHT31;56792;50.644;17.984;2024-03-22T12:55:55;15.49;54.78
69589;SHT31;56792;50.644;17.984;2024-03-22T12:58:25;15.46;54.37
69589;SHT31;56792;50.644;17.984;2024-03-22T13:00:55;15.44;54.35
69589;SHT31;56792;50.644;17.984;2024-03-22T13:03:27;15.36;54.03
69589;SHT31;56792;50.644;17.984;2024-03-22T13:05:59;15.28;53.83
69589;SHT31;56792;50.644;17.984;2024-03-22T13:08:29;15.19;53.42
69589;SHT31;56792;50.644;17.984;2024-03-22T13:11:00;15.13;53.80
69589;SHT31;56792;50.644;17.984;2024-03-22T13:13:31;15.11;53.49
69589;SHT31;56792;50.644;17.984;2024-03-22T13:16:01;15.15;53.72
69589;SHT31;56792;50.644;17.984;2024-03-22T13:18:33;15.17;53.33
69589;SHT31;56792;50.644;17.984;2024-03-22T13:21:04;15.08;53.15
69589;SHT31;56792;50.644;17.984;2024-03-22T13:23:34;14.95;52.87
69589;SHT31;56792;50.644;17.984;2024-03-22T13:26:05;14.90;53.20
69589;SHT31;56792;50.644;17.984;2024-03-22T13:28:36;14.90;53.10
69589;SHT31;56792;50.644;17.984;2024-03-22T13:31:08;14.90;53.17
69589;SHT31;56792;50.644;17.984;2024-03-22T13:33:38;14.89;53.42
69589;SHT31;56792;50.644;17.984;2024-03-22T13:36:09;14.90;53.46
69589;SHT31;56792;50.644;17.984;2024-03-22T13:38:39;14.89;53.21
69589;SHT31;56792;50.644;17.984;2024-03-22T13:41:10;14.88;53.29
69589;SHT31;56792;50.644;17.984;2024-03-22T13:43:41;14.90;53.52
69589;SHT31;56792;50.644;17.984;2024-03-22T13:46:12;14.94;52.54
69589;SHT31;56792;50.644;17.984;2024-03-22T13:48:43;14.89;52.35
69589;SHT31;56792;50.644;17.984;2024-03-22T13:51:14;14.89;52.98
69589;SHT31;56792;50.644;17.984;2024-03-22T13:53:45;14.89;52.45
69589;SHT31;56792;50.644;17.984;2024-03-22T13:56:15;14.91;52.34
69589;SHT31;56792;50.644;17.984;2024-03-22T13:58:45;14.88;52.05
69589;SHT31;56792;50.644;17.984;2024-03-22T14:01:16;14.87;52.31
69589;SHT31;56792;50.644;17.984;2024-03-22T14:03:46;14.82;51.77
69589;SHT31;56792;50.644;17.984;2024-03-22T14:06:17;14.79;51.81
69589;SHT31;56792;50.644;17.984;2024-03-22T14:08:47;14.79;51.73
69589;SHT31;56792;50.644;17.984;2024-03-22T14:11:21;14.76;51.49
69589;SHT31;56792;50.644;17.984;2024-03-22T14:13:51;14.72;50.96
69589;SHT31;56792;50.644;17.984;2024-03-22T14:16:22;14.66;50.79
69589;SHT31;56792;50.644;17.984;2024-03-22T14:18:52;14.61;50.54
69589;SHT31;56792;50.644;17.984;2024-03-22T14:21:23;14.60;51.54
69589;SHT31;56792;50.644;17.984;2024-03-22T14:23:53;14.64;51.77
69589;SHT31;56792;50.644;17.984;2024-03-22T14:26:24;14.66;52.25
69589;SHT31;56792;50.644;17.984;2024-03-22T14:28:54;14.71;52.64
69589;SHT31;56792;50.644;17.984;2024-03-22T14:31:25;14.76;52.73
69589;SHT31;56792;50.644;17.984;2024-03-22T14:33:55;14.74;52.05
69589;SHT31;56792;50.644;17.984;2024-03-22T14:36:26;14.70;52.18
69589;SHT31;56792;50.644;17.984;2024-03-22T14:38:56;14.71;52.46
69589;SHT31;56792;50.644;17.984;2024-03-22T14:41:28;14.69;52.86
69589;SHT31;56792;50.644;17.984;2024-03-22T14:43:58;14.69;53.30
69589;SHT31;56792;50.644;17.984;2024-03-22T14:46:29;14.69;53.71
69589;SHT31;56792;50.644;17.984;2024-03-22T14:49:00;14.68;53.60
69589;SHT31;56792;50.644;17.984;2024-03-22T14:51:31;14.67;53.67
69589;SHT31;56792;50.644;17.984;2024-03-22T14:54:02;14.63;53.41
69589;SHT31;56792;50.644;17.984;2024-03-22T14:56:32;14.62;53.89
69589;SHT31;56792;50.644;17.984;2024-03-22T14:59:03;14.60;54.35
69589;SHT31;56792;50.644;17.984;2024-03-22T15:01:33;14.60;54.46
69589;SHT31;56792;50.644;17.984;2024-03-22T15:04:05;14.56;54.23
69589;SHT31;56792;50.644;17.984;2024-03-22T15:06:35;14.51;54.32
69589;SHT31;56792;50.644;17.984;2024-03-22T15:09:06;14.49;54.56
69589;SHT31;56792;50.644;17.984;2024-03-22T15:11:37;14.48;54.67
69589;SHT31;56792;50.644;17.984;2024-03-22T15:14:08;14.48;54.70
69589;SHT31;56792;50.644;17.984;2024-03-22T15:16:39;14.49;54.51
69589;SHT31;56792;50.644;17.984;2024-03-22T15:19:09;14.47;54.61
69589;SHT31;56792;50.644;17.984;2024-03-22T15:21:40;14.47;54.90
69589;SHT31;56792;50.644;17.984;2024-03-22T15:24:10;14.46;54.96
69589;SHT31;56792;50.644;17.984;2024-03-22T15:26:41;14.42;54.76
69589;SHT31;56792;50.644;17.984;2024-03-22T15:29:11;14.39;55.43
69589;SHT31;56792;50.644;17.984;2024-03-22T15:31:42;14.35;56.05
69589;SHT31;56792;50.644;17.984;2024-03-22T15:34:12;14.32;56.43
69589;SHT31;56792;50.644;17.984;2024-03-22T15:36:43;14.29;56.64
69589;SHT31;56792;50.644;17.984;2024-03-22T15:39:14;14.30;56.90
69589;SHT31;56792;50.644;17.984;2024-03-22T15:41:45;14.24;57.00
69589;SHT31;56792;50.644;17.984;2024-03-22T15:44:16;14.22;57.21
69589;SHT31;56792;50.644;17.984;2024-03-22T15:46:47;14.18;56.88